Time;durP1;ratioP1;P1;durP2;ratioP2;P2;SDS_P1;SDS_P2;PMS_P1;PMS_P2;Temp;Humidity;BMP_temperature;BMP_pressure;BME280_temperature;BME280_humidity;BME280_pressure;Samples;Min_cycle;Max_cycle;Signal;HPM_P1;HPM_P2
2021/07/21 00:02:11;;;;;;;12.00;7.80;;;19.20;99.90;;;;;;4955001;29;20182;-62
2021/07/21 00:04:38;;;;;;;12.63;8.60;;;19.10;99.90;;;;;;4954909;28;20213;-62
2021/07/21 00:07:05;;;;;;;11.07;9.93;;;19.10;99.90;;;;;;4954666;29;20537;-62
2021/07/21 00:09:32;;;;;;;10.50;9.20;;;18.90;99.90;;;;;;4954361;29;20428;-62
2021/07/21 00:14:41;;;;;;;9.20;8.23;;;18.80;99.90;;;;;;4954417;28;20899;-61
2021/07/21 00:17:18;;;;;;;11.40;8.83;;;18.80;99.90;;;;;;4954872;29;20449;-61
2021/07/21 00:22:29;;;;;;;12.03;7.87;;;18.80;99.90;;;;;;4953573;29;20917;-60
2021/07/21 00:24:55;;;;;;;10.30;8.20;;;18.80;99.90;;;;;;4954213;28;20434;-62
2021/07/21 00:27:21;;;;;;;12.40;8.53;;;18.80;99.90;;;;;;4954777;29;20232;-62
2021/07/21 00:29:47;;;;;;;11.60;9.23;;;18.70;99.90;;;;;;4953398;29;20198;-60
2021/07/21 00:32:12;;;;;;;11.20;9.10;;;18.50;99.90;;;;;;4954159;29;20453;-61
2021/07/21 00:34:38;;;;;;;10.40;8.90;;;18.50;99.90;;;;;;4954593;28;20194;-61
2021/07/21 00:37:03;;;;;;;9.70;8.70;;;18.60;99.90;;;;;;4954813;29;20204;-62
2021/07/21 00:39:29;;;;;;;10.50;8.70;;;18.60;99.90;;;;;;4954683;29;20542;-61
2021/07/21 00:41:55;;;;;;;9.40;8.50;;;18.40;99.90;;;;;;4957368;28;20174;-61
2021/07/21 00:44:20;;;;;;;10.30;8.70;;;18.40;99.90;;;;;;4956038;28;20223;-61
2021/07/21 00:46:46;;;;;;;9.00;7.77;;;18.30;99.90;;;;;;4957813;29;20651;-61
2021/07/21 00:49:11;;;;;;;9.77;8.77;;;18.20;99.90;;;;;;4957832;29;20174;-61
2021/07/21 00:51:38;;;;;;;9.40;8.40;;;18.10;99.90;;;;;;4956127;29;20210;-60
2021/07/21 00:54:05;;;;;;;12.20;9.20;;;18.10;99.90;;;;;;4957451;28;20671;-59
2021/07/21 00:56:32;;;;;;;10.30;8.37;;;18.20;99.90;;;;;;4957278;29;20452;-61
2021/07/21 00:58:57;;;;;;;12.03;8.97;;;18.10;99.90;;;;;;4956772;29;20593;-60
2021/07/21 01:01:23;;;;;;;11.53;9.50;;;18.10;99.90;;;;;;4957420;29;20468;-60
2021/07/21 01:03:49;;;;;;;8.50;7.70;;;18.20;99.90;;;;;;4957384;28;20281;-60
2021/07/21 01:06:14;;;;;;;9.50;8.40;;;18.10;99.90;;;;;;4957678;29;20182;-60
2021/07/21 01:08:40;;;;;;;13.70;8.90;;;17.90;99.90;;;;;;4957938;29;20264;-60
2021/07/21 01:11:34;;;;;;;11.53;9.17;;;17.70;99.90;;;;;;4957237;29;20292;-60
2021/07/21 01:14:03;;;;;;;13.40;9.67;;;17.70;99.90;;;;;;4956932;28;20213;-60
2021/07/21 01:16:33;;;;;;;11.83;9.40;;;17.80;99.90;;;;;;4956887;29;20422;-61
2021/07/21 01:19:45;;;;;;;9.80;8.33;;;17.70;99.90;;;;;;4957667;29;20401;-61
2021/07/21 01:22:19;;;;;;;11.17;8.93;;;17.70;99.90;;;;;;4957544;29;20408;-62
2021/07/21 01:25:17;;;;;;;11.20;8.97;;;17.80;99.90;;;;;;4955557;28;20468;-60
2021/07/21 01:27:50;;;;;;;9.87;8.87;;;17.80;99.90;;;;;;4957248;29;20496;-60
2021/07/21 01:30:22;;;;;;;8.60;7.70;;;17.70;99.90;;;;;;4955583;29;20421;-60
2021/07/21 01:32:54;;;;;;;10.47;8.20;;;17.70;99.90;;;;;;4957185;29;20958;-60
2021/07/21 01:35:24;;;;;;;10.10;8.50;;;17.60;99.90;;;;;;4957160;28;20430;-61
2021/07/21 01:37:57;;;;;;;12.23;8.70;;;17.60;99.90;;;;;;4946625;29;20815;-62
2021/07/21 01:40:28;;;;;;;12.57;8.90;;;17.50;99.90;;;;;;4937670;29;20425;-61
2021/07/21 01:42:58;;;;;;;10.23;9.13;;;17.50;99.90;;;;;;4937427;29;20828;-62
2021/07/21 01:45:27;;;;;;;10.27;8.63;;;17.60;99.90;;;;;;4937344;29;20431;-62
2021/07/21 01:47:52;;;;;;;9.87;8.50;;;17.60;99.90;;;;;;4947350;29;20524;-61
2021/07/21 01:50:19;;;;;;;10.50;9.40;;;17.50;99.90;;;;;;4956811;29;20552;-62
2021/07/21 01:52:48;;;;;;;9.90;8.50;;;17.50;99.90;;;;;;4954566;28;20244;-62
2021/07/21 01:55:17;;;;;;;11.30;9.70;;;17.40;99.90;;;;;;4956421;28;20512;-61
2021/07/21 01:57:44;;;;;;;11.43;8.40;;;17.50;99.90;;;;;;4956455;29;20425;-62
2021/07/21 02:00:12;;;;;;;12.50;9.20;;;17.50;99.90;;;;;;4956047;29;20406;-62
2021/07/21 02:02:40;;;;;;;11.80;8.27;;;17.40;99.90;;;;;;4956378;29;20416;-62
2021/07/21 02:05:06;;;;;;;11.43;8.37;;;17.30;99.90;;;;;;4956487;28;20491;-62
2021/07/21 02:07:34;;;;;;;10.47;9.40;;;17.30;99.90;;;;;;4956529;29;20429;-61
2021/07/21 02:10:00;;;;;;;10.40;8.97;;;17.30;99.90;;;;;;4956224;29;20456;-62
2021/07/21 02:12:27;;;;;;;15.50;9.43;;;17.30;99.90;;;;;;4956360;29;20461;-61
2021/07/21 02:14:53;;;;;;;10.50;9.13;;;17.30;99.90;;;;;;4955904;28;20426;-62
2021/07/21 02:17:20;;;;;;;12.77;10.53;;;17.30;99.90;;;;;;4956427;29;20413;-62
2021/07/21 02:19:47;;;;;;;11.10;8.67;;;17.30;99.90;;;;;;4955854;28;20361;-62
2021/07/21 02:22:18;;;;;;;13.13;9.57;;;17.40;99.90;;;;;;4936679;29;20573;-61
2021/07/21 02:24:44;;;;;;;11.53;9.77;;;17.60;99.90;;;;;;4937363;29;20426;-61
2021/07/21 02:27:10;;;;;;;13.40;9.97;;;17.40;99.90;;;;;;4937102;29;20415;-61
2021/07/21 02:29:36;;;;;;;12.43;10.27;;;17.30;99.90;;;;;;4954376;29;20426;-61
2021/07/21 02:32:02;;;;;;;12.73;10.20;;;17.30;99.90;;;;;;4955876;29;20254;-61
2021/07/21 02:34:27;;;;;;;10.33;9.10;;;17.10;99.90;;;;;;4955926;28;20186;-61
2021/07/21 02:36:54;;;;;;;12.40;9.40;;;17.10;99.90;;;;;;4954130;29;20263;-61
2021/07/21 02:39:21;;;;;;;12.13;8.67;;;17.20;99.90;;;;;;4955767;29;20166;-61
2021/07/21 02:41:47;;;;;;;10.57;9.00;;;17.20;99.90;;;;;;4956086;29;20417;-61
2021/07/21 02:44:13;;;;;;;11.20;8.90;;;17.30;99.90;;;;;;4954221;28;20468;-61
2021/07/21 02:46:39;;;;;;;12.57;9.70;;;17.30;99.90;;;;;;4955335;29;20177;-61
2021/07/21 02:49:05;;;;;;;11.93;9.50;;;17.30;99.90;;;;;;4955527;29;20409;-61
2021/07/21 02:51:44;;;;;;;13.90;9.20;;;17.30;99.90;;;;;;4955051;29;20201;-60
2021/07/21 02:54:26;;;;;;;11.13;9.53;;;17.30;99.90;;;;;;4955408;28;20193;-60
2021/07/21 02:56:57;;;;;;;11.90;9.63;;;17.30;99.90;;;;;;4955713;29;20386;-61
2021/07/21 02:59:30;;;;;;;9.10;8.00;;;17.30;99.90;;;;;;4955671;29;20393;-62
2021/07/21 03:01:59;;;;;;;12.10;10.03;;;17.20;99.90;;;;;;4955495;29;20903;-61
2021/07/21 03:04:26;;;;;;;10.17;8.77;;;17.30;99.90;;;;;;4954702;28;20446;-61
2021/07/21 03:06:53;;;;;;;10.60;8.37;;;17.20;99.90;;;;;;4955126;29;20413;-61
2021/07/21 03:09:21;;;;;;;12.50;9.97;;;17.20;99.90;;;;;;4955527;29;20499;-61
2021/07/21 03:11:50;;;;;;;11.20;9.37;;;17.30;99.90;;;;;;4955419;29;20488;-61
2021/07/21 03:14:18;;;;;;;11.43;10.07;;;17.20;99.90;;;;;;4955135;28;20939;-61
2021/07/21 03:16:47;;;;;;;12.50;9.67;;;17.10;99.90;;;;;;4955023;28;20417;-61
2021/07/21 03:19:15;;;;;;;10.93;9.70;;;17.10;99.90;;;;;;4955776;29;20897;-60
2021/07/21 03:21:43;;;;;;;9.83;8.73;;;17.00;99.90;;;;;;4955165;29;20424;-60
2021/07/21 03:24:10;;;;;;;12.87;9.20;;;17.00;99.90;;;;;;4954967;28;20437;-61
2021/07/21 03:26:36;;;;;;;10.40;8.90;;;17.00;99.90;;;;;;4955399;29;20440;-61
2021/07/21 03:29:04;;;;;;;12.50;10.80;;;17.00;99.90;;;;;;4953536;29;20802;-61
2021/07/21 03:31:30;;;;;;;9.40;8.50;;;17.00;99.90;;;;;;4942128;28;20454;-61
2021/07/21 03:34:04;;;;;;;14.10;10.20;;;17.10;99.90;;;;;;4935815;29;20593;-61
2021/07/21 03:36:35;;;;;;;12.03;10.07;;;17.10;99.90;;;;;;4936201;29;20294;-61
2021/07/21 03:39:02;;;;;;;10.33;8.87;;;17.20;99.90;;;;;;4934577;29;20433;-61
2021/07/21 03:41:31;;;;;;;10.27;8.57;;;17.10;99.90;;;;;;4936026;29;20838;-61
2021/07/21 03:43:57;;;;;;;12.80;9.83;;;17.20;99.90;;;;;;4935303;29;20516;-60
2021/07/21 03:46:23;;;;;;;9.87;8.87;;;17.20;99.90;;;;;;4935826;29;20425;-60
2021/07/21 03:48:49;;;;;;;13.43;9.70;;;17.10;99.90;;;;;;4936062;29;20833;-61
2021/07/21 03:51:15;;;;;;;10.47;9.37;;;17.00;99.90;;;;;;4935849;29;20465;-61
2021/07/21 03:53:41;;;;;;;11.47;9.80;;;17.00;99.90;;;;;;4944519;28;20289;-61
2021/07/21 03:56:07;;;;;;;10.83;9.60;;;16.90;99.90;;;;;;4954751;29;20911;-61
2021/07/21 03:58:34;;;;;;;12.00;9.63;;;16.80;99.90;;;;;;4955192;29;20413;-60
2021/07/21 04:01:01;;;;;;;11.53;9.33;;;16.70;99.90;;;;;;4955045;29;20768;-61
2021/07/21 04:03:28;;;;;;;11.90;9.13;;;16.60;99.90;;;;;;4956863;28;20416;-60
2021/07/21 04:05:55;;;;;;;12.00;8.50;;;16.50;99.90;;;;;;4954820;29;20927;-60
2021/07/21 04:08:22;;;;;;;11.03;9.73;;;16.70;99.90;;;;;;4953376;29;20421;-60
2021/07/21 04:10:52;;;;;;;11.17;10.07;;;16.60;99.90;;;;;;4954963;29;20405;-60
2021/07/21 04:13:18;;;;;;;11.53;9.03;;;16.60;99.90;;;;;;4952958;28;20498;-60
2021/07/21 04:15:46;;;;;;;14.20;10.37;;;16.60;99.90;;;;;;4955984;28;20429;-60
2021/07/21 04:18:13;;;;;;;14.53;9.20;;;16.60;99.90;;;;;;4958606;28;20439;-60
2021/07/21 04:20:40;;;;;;;12.20;10.00;;;16.70;99.90;;;;;;4957112;28;20424;-60
2021/07/21 04:23:06;;;;;;;13.63;11.03;;;16.70;99.90;;;;;;4957920;28;20411;-60
2021/07/21 04:25:33;;;;;;;14.83;9.77;;;16.80;99.90;;;;;;4958220;28;20421;-60
2021/07/21 04:28:00;;;;;;;12.67;9.50;;;16.80;99.90;;;;;;4958043;29;20421;-60
2021/07/21 04:30:30;;;;;;;11.00;9.50;;;16.80;99.90;;;;;;4957061;29;20410;-59
2021/07/21 04:32:57;;;;;;;10.63;9.10;;;16.80;99.90;;;;;;4956430;29;20495;-59
2021/07/21 04:35:25;;;;;;;14.60;9.50;;;16.90;99.90;;;;;;4958241;28;20452;-59
2021/07/21 04:37:51;;;;;;;12.07;10.43;;;16.90;99.90;;;;;;4957983;29;20414;-60
2021/07/21 04:40:17;;;;;;;13.17;9.97;;;17.00;99.90;;;;;;4958313;28;20417;-62
2021/07/21 04:42:43;;;;;;;12.63;10.70;;;16.90;99.90;;;;;;4958201;29;20410;-61
2021/07/21 04:45:10;;;;;;;12.17;9.83;;;17.00;99.90;;;;;;4957672;28;20844;-61
2021/07/21 04:47:36;;;;;;;10.70;9.30;;;17.00;99.90;;;;;;4956303;28;20452;-62
2021/07/21 04:50:05;;;;;;;10.97;9.50;;;17.20;99.90;;;;;;4957572;29;20437;-62
2021/07/21 04:52:31;;;;;;;13.60;9.30;;;17.30;99.90;;;;;;4957869;29;20543;-61
2021/07/21 04:54:57;;;;;;;12.90;9.60;;;17.20;99.90;;;;;;4955877;28;20532;-61
2021/07/21 04:57:23;;;;;;;14.27;11.00;;;17.30;99.90;;;;;;4956376;29;20193;-59
2021/07/21 04:59:49;;;;;;;9.40;8.40;;;17.30;99.90;;;;;;4956106;28;20177;-62
2021/07/21 05:02:16;;;;;;;10.60;9.50;;;17.30;99.90;;;;;;4957825;29;20600;-60
2021/07/21 05:04:42;;;;;;;12.23;10.33;;;17.40;99.90;;;;;;4957475;28;20475;-60
2021/07/21 05:07:08;;;;;;;13.60;9.93;;;17.40;99.90;;;;;;4957858;28;20413;-60
2021/07/21 05:09:34;;;;;;;11.90;10.10;;;17.40;99.90;;;;;;4957611;29;20837;-61
2021/07/21 05:12:00;;;;;;;11.67;9.50;;;17.50;99.90;;;;;;4957304;29;20512;-60
2021/07/21 05:14:25;;;;;;;13.30;10.73;;;17.60;99.90;;;;;;4932586;29;20940;-60
2021/07/21 05:16:51;;;;;;;12.00;10.00;;;17.60;99.90;;;;;;4948160;29;20225;-61
2021/07/21 05:19:17;;;;;;;11.27;9.63;;;17.70;99.90;;;;;;4957878;29;20249;-60
2021/07/21 05:21:42;;;;;;;10.00;8.90;;;17.80;99.90;;;;;;4957619;29;20592;-59
2021/07/21 05:24:08;;;;;;;10.77;9.67;;;17.80;99.90;;;;;;4958030;28;20198;-60
2021/07/21 05:26:33;;;;;;;14.90;11.70;;;17.90;99.90;;;;;;4956897;28;20174;-60
2021/07/21 05:28:59;;;;;;;16.07;11.30;;;17.90;99.90;;;;;;4957429;29;20189;-57
2021/07/21 05:31:25;;;;;;;12.20;10.27;;;18.00;99.90;;;;;;4957499;28;20198;-60
2021/07/21 05:33:50;;;;;;;9.33;8.23;;;18.10;99.90;;;;;;4957835;28;20659;-61
2021/07/21 05:36:19;;;;;;;10.90;9.47;;;18.20;99.90;;;;;;4939022;29;20185;-63
2021/07/21 05:38:45;;;;;;;14.70;11.30;;;18.20;99.90;;;;;;4939745;29;20175;-63
2021/07/21 05:41:10;;;;;;;11.30;10.03;;;18.30;99.90;;;;;;4940289;29;20430;-61
2021/07/21 05:43:36;;;;;;;11.37;10.17;;;18.20;99.90;;;;;;4956364;28;20214;-61
2021/07/21 05:46:02;;;;;;;10.87;9.77;;;18.20;99.90;;;;;;4957718;29;20168;-61
2021/07/21 05:48:27;;;;;;;11.67;10.10;;;18.30;99.90;;;;;;4957380;29;20532;-61
2021/07/21 05:50:54;;;;;;;28.53;23.87;;;18.40;99.90;;;;;;4956111;29;20537;-60
2021/07/21 05:53:20;;;;;;;11.70;10.00;;;18.40;99.90;;;;;;4957440;28;20182;-62
2021/07/21 05:55:46;;;;;;;15.03;11.83;;;18.30;99.90;;;;;;4957216;28;20402;-62
2021/07/21 05:58:14;;;;;;;14.07;11.10;;;18.30;99.90;;;;;;4955282;29;20596;-61
2021/07/21 06:00:40;;;;;;;13.93;10.30;;;18.20;99.90;;;;;;4956731;29;20174;-60
2021/07/21 06:03:06;;;;;;;15.33;11.80;;;18.30;99.90;;;;;;4955066;28;20421;-62
2021/07/21 06:05:31;;;;;;;12.23;11.00;;;18.40;99.90;;;;;;4956314;28;20528;-61
2021/07/21 06:07:57;;;;;;;13.20;10.97;;;18.40;99.90;;;;;;4956656;29;20272;-61
2021/07/21 06:10:23;;;;;;;14.50;12.57;;;18.50;99.90;;;;;;4956435;29;20174;-61
2021/07/21 06:12:48;;;;;;;14.63;11.60;;;18.50;99.90;;;;;;4955984;29;20201;-60
2021/07/21 06:15:14;;;;;;;17.73;11.90;;;18.40;99.90;;;;;;4956107;28;20178;-62
2021/07/21 06:17:40;;;;;;;14.20;10.87;;;18.60;99.90;;;;;;4955959;28;20221;-62
2021/07/21 06:20:08;;;;;;;14.80;12.60;;;18.90;99.90;;;;;;4955955;29;20429;-61
2021/07/21 06:22:38;;;;;;;15.57;11.30;;;19.00;99.90;;;;;;4956611;28;20253;-61
2021/07/21 06:25:06;;;;;;;12.80;11.30;;;19.10;99.90;;;;;;4956217;28;20804;-61
2021/07/21 06:27:32;;;;;;;13.73;11.10;;;18.90;99.90;;;;;;4955976;28;20500;-62
2021/07/21 06:29:57;;;;;;;12.73;11.30;;;19.00;99.90;;;;;;4956100;29;20844;-61
2021/07/21 06:32:23;;;;;;;13.13;9.67;;;19.10;99.90;;;;;;4955439;29;20564;-61
2021/07/21 06:34:48;;;;;;;11.83;10.50;;;19.20;99.90;;;;;;4955742;28;20194;-62
2021/07/21 06:37:14;;;;;;;11.83;10.63;;;19.30;99.90;;;;;;4956019;29;20194;-61
2021/07/21 06:39:40;;;;;;;12.20;9.90;;;19.40;99.90;;;;;;4954225;28;20174;-62
2021/07/21 06:42:05;;;;;;;13.30;11.50;;;19.60;99.90;;;;;;4955455;29;20178;-62
2021/07/21 06:44:31;;;;;;;13.97;11.30;;;19.50;99.90;;;;;;4955356;28;20663;-62
2021/07/21 06:46:56;;;;;;;12.63;9.90;;;19.60;99.90;;;;;;4924253;29;20601;-62
2021/07/21 06:49:22;;;;;;;13.77;12.23;;;19.60;99.90;;;;;;4928009;29;20683;-63
2021/07/21 06:51:48;;;;;;;12.40;11.00;;;19.70;99.90;;;;;;4938493;29;20198;-62
2021/07/21 06:54:13;;;;;;;14.17;11.70;;;19.70;99.90;;;;;;4955763;28;20198;-63
2021/07/21 06:56:39;;;;;;;17.03;12.50;;;19.70;99.90;;;;;;4955439;29;20170;-62
2021/07/21 06:59:05;;;;;;;13.70;10.73;;;19.40;99.90;;;;;;4954139;29;20174;-62
2021/07/21 07:01:30;;;;;;;12.77;11.50;;;19.50;99.90;;;;;;4955733;29;20542;-62
2021/07/21 07:03:56;;;;;;;16.17;10.77;;;19.70;99.90;;;;;;4955569;28;20280;-62
2021/07/21 07:06:23;;;;;;;12.63;11.43;;;19.70;99.90;;;;;;4954300;29;20269;-62
2021/07/21 07:08:48;;;;;;;16.80;12.10;;;19.60;99.90;;;;;;4955359;29;20173;-62
2021/07/21 07:11:14;;;;;;;11.57;10.10;;;19.70;99.90;;;;;;4955679;29;20798;-62
2021/07/21 07:13:40;;;;;;;14.17;10.33;;;19.90;99.90;;;;;;4955128;28;20249;-62
2021/07/21 07:16:05;;;;;;;12.30;11.10;;;20.10;99.90;;;;;;4955190;29;20456;-62
2021/07/21 07:18:31;;;;;;;13.87;10.50;;;20.00;99.90;;;;;;4955476;28;20221;-62
2021/07/21 07:20:57;;;;;;;12.37;11.10;;;20.00;99.90;;;;;;4954937;29;20170;-62
2021/07/21 07:23:24;;;;;;;12.13;10.50;;;20.20;99.90;;;;;;4955135;28;20169;-62
2021/07/21 07:25:49;;;;;;;12.00;10.80;;;20.30;99.90;;;;;;4955172;28;20640;-62
2021/07/21 07:28:15;;;;;;;13.47;12.10;;;20.50;99.90;;;;;;4955751;29;20416;-62
2021/07/21 07:30:41;;;;;;;12.23;11.00;;;20.40;99.90;;;;;;4955656;28;20173;-62
2021/07/21 07:33:07;;;;;;;12.53;11.23;;;20.40;99.90;;;;;;4955603;29;20201;-62
2021/07/21 07:35:32;;;;;;;12.70;11.00;;;20.60;99.90;;;;;;4955259;28;20189;-62
2021/07/21 07:37:58;;;;;;;12.33;11.13;;;20.70;99.90;;;;;;4934057;29;20174;-61
2021/07/21 07:40:24;;;;;;;12.87;11.10;;;20.90;99.90;;;;;;4936392;29;20217;-62
2021/07/21 07:42:50;;;;;;;14.73;12.33;;;20.80;99.90;;;;;;4938293;29;20177;-61
2021/07/21 07:45:15;;;;;;;13.57;9.73;;;20.90;99.90;;;;;;4937332;28;20339;-61
2021/07/21 07:47:43;;;;;;;16.83;11.30;;;20.70;99.90;;;;;;4935484;29;20170;-61
2021/07/21 07:50:10;;;;;;;12.30;11.00;;;20.70;99.90;;;;;;4936335;29;20174;-62
2021/07/21 07:52:36;;;;;;;12.90;9.93;;;20.90;99.90;;;;;;4948344;29;20465;-61
2021/07/21 07:55:03;;;;;;;16.13;11.10;;;20.80;99.90;;;;;;4958493;28;20807;-60
2021/07/21 07:57:29;;;;;;;13.33;10.53;;;20.90;99.90;;;;;;4956930;28;20930;-62
2021/07/21 07:59:54;;;;;;;10.83;9.73;;;21.10;99.90;;;;;;4958552;29;20488;-62
2021/07/21 08:02:20;;;;;;;11.03;9.70;;;21.00;99.90;;;;;;4958729;29;20557;-62
2021/07/21 08:04:46;;;;;;;11.67;10.50;;;21.00;99.90;;;;;;4956911;28;20256;-62
2021/07/21 08:07:11;;;;;;;16.80;10.97;;;21.20;99.90;;;;;;4958679;29;20619;-62
2021/07/21 08:09:37;;;;;;;14.17;10.60;;;21.40;99.90;;;;;;4959014;29;20671;-62
2021/07/21 08:12:03;;;;;;;15.00;11.80;;;21.50;99.90;;;;;;4957187;29;20205;-62
2021/07/21 08:14:29;;;;;;;14.60;11.10;;;21.50;99.90;;;;;;4958884;28;20193;-61
2021/07/21 08:16:55;;;;;;;16.13;11.40;;;21.40;99.90;;;;;;4958668;29;20468;-61
2021/07/21 08:19:22;;;;;;;11.70;10.33;;;21.30;99.90;;;;;;4958074;28;20261;-61
2021/07/21 08:21:48;;;;;;;12.70;10.60;;;21.50;99.90;;;;;;4959344;28;20887;-61
2021/07/21 08:24:15;;;;;;;12.50;11.30;;;21.60;99.90;;;;;;4958379;28;20426;-61
2021/07/21 08:26:41;;;;;;;13.80;11.10;;;21.80;99.90;;;;;;4958338;28;20444;-61
2021/07/21 08:29:10;;;;;;;12.27;11.00;;;21.90;99.90;;;;;;4956812;28;20934;-61
2021/07/21 08:31:36;;;;;;;15.40;11.07;;;22.10;99.90;;;;;;4958183;28;20198;-61
2021/07/21 08:34:05;;;;;;;15.43;12.50;;;22.00;99.90;;;;;;4957962;28;20429;-62
2021/07/21 08:36:33;;;;;;;13.53;10.57;;;21.90;99.90;;;;;;4958114;28;20492;-60
2021/07/21 08:38:58;;;;;;;12.60;11.00;;;22.10;99.90;;;;;;4956557;28;20425;-61
2021/07/21 08:41:27;;;;;;;11.93;10.33;;;22.20;99.90;;;;;;4958084;29;20408;-61
2021/07/21 08:43:54;;;;;;;12.20;10.37;;;22.00;99.90;;;;;;4956158;28;20217;-63
2021/07/21 08:46:21;;;;;;;19.23;11.97;;;21.90;99.90;;;;;;4957998;28;20961;-61
2021/07/21 08:48:50;;;;;;;12.00;10.70;;;22.00;99.90;;;;;;4955344;29;20417;-59
2021/07/21 08:51:19;;;;;;;12.80;11.20;;;22.10;99.90;;;;;;4957791;28;20430;-61
2021/07/21 08:53:45;;;;;;;13.80;11.20;;;22.20;99.90;;;;;;4957666;28;20528;-61
2021/07/21 08:56:11;;;;;;;16.37;11.07;;;22.40;99.90;;;;;;4957808;28;20442;-61
2021/07/21 08:58:37;;;;;;;12.80;10.63;;;22.40;99.90;;;;;;4957951;28;20421;-62
2021/07/21 09:01:03;;;;;;;11.33;10.17;;;22.70;99.90;;;;;;4957956;28;20170;-61
2021/07/21 09:03:30;;;;;;;11.47;10.37;;;22.80;99.90;;;;;;4958036;28;20771;-62
2021/07/21 09:05:55;;;;;;;11.00;9.87;;;22.70;99.90;;;;;;4955818;28;20192;-62
2021/07/21 09:08:21;;;;;;;13.00;10.17;;;22.50;99.90;;;;;;4957572;29;20493;-62
2021/07/21 09:10:48;;;;;;;16.80;11.40;;;22.70;99.90;;;;;;4957824;29;20197;-64
2021/07/21 09:13:15;;;;;;;11.13;9.97;;;22.60;99.90;;;;;;4957722;28;20825;-62
2021/07/21 09:15:46;;;;;;;11.77;10.57;;;22.30;99.90;;;;;;4957546;29;20468;-62
2021/07/21 09:18:16;;;;;;;10.53;9.53;;;22.10;99.90;;;;;;4957648;28;20413;-62
2021/07/21 09:20:49;;;;;;;16.83;11.20;;;22.50;99.90;;;;;;4956843;29;20446;-63
2021/07/21 09:23:15;;;;;;;14.77;10.33;;;22.70;99.90;;;;;;4955547;28;20464;-62
2021/07/21 09:25:42;;;;;;;13.83;10.63;;;22.90;99.90;;;;;;4957319;28;20405;-61
2021/07/21 09:28:10;;;;;;;11.77;9.90;;;23.00;99.90;;;;;;4956926;28;20647;-62
2021/07/21 09:30:42;;;;;;;10.80;9.63;;;23.00;99.90;;;;;;4957118;29;20409;-62
2021/07/21 09:33:20;;;;;;;12.93;10.23;;;23.10;99.90;;;;;;4957199;29;20477;-62
2021/07/21 09:35:49;;;;;;;11.13;9.90;;;23.20;99.90;;;;;;4956089;29;20374;-62
2021/07/21 09:38:17;;;;;;;11.43;9.40;;;23.40;99.90;;;;;;4918475;29;20455;-62
2021/07/21 09:40:52;;;;;;;12.70;9.90;;;23.50;99.90;;;;;;4927883;29;20403;-62
2021/07/21 09:43:20;;;;;;;13.70;9.30;;;23.50;99.90;;;;;;4927841;29;20457;-62
2021/07/21 09:45:46;;;;;;;10.80;9.80;;;23.70;99.90;;;;;;4949011;29;20945;-62
2021/07/21 09:48:13;;;;;;;12.73;10.17;;;23.90;99.90;;;;;;4956736;28;20493;-62
2021/07/21 09:50:43;;;;;;;11.70;10.37;;;24.10;99.90;;;;;;4956980;28;20410;-62
2021/07/21 09:53:14;;;;;;;12.53;10.63;;;24.20;99.90;;;;;;4956262;28;20805;-62
2021/07/21 09:55:42;;;;;;;14.17;9.53;;;24.40;99.90;;;;;;4956678;28;20414;-62
2021/07/21 09:58:23;;;;;;;13.50;9.93;;;24.50;99.90;;;;;;4956542;29;20530;-62
2021/07/21 10:00:50;;;;;;;11.57;9.40;;;24.50;99.90;;;;;;4956571;29;20394;-62
2021/07/21 10:03:21;;;;;;;11.37;10.23;;;24.50;99.90;;;;;;4957666;28;20424;-62
2021/07/21 10:06:00;;;;;;;11.90;9.60;;;24.40;99.90;;;;;;4955120;29;20426;-62
2021/07/21 10:08:40;;;;;;;10.57;9.50;;;24.50;99.90;;;;;;4956335;29;20414;-62
2021/07/21 10:11:33;;;;;;;10.53;9.43;;;24.80;99.90;;;;;;4956428;29;20444;-62
2021/07/21 10:14:01;;;;;;;10.97;9.80;;;25.20;99.90;;;;;;4955370;28;20441;-62
2021/07/21 10:16:42;;;;;;;11.63;10.20;;;25.20;99.20;;;;;;4956028;29;20443;-62
2021/07/21 10:19:22;;;;;;;9.70;8.80;;;24.80;99.00;;;;;;4956297;28;20445;-62
2021/07/21 10:21:51;;;;;;;10.63;9.63;;;24.90;99.00;;;;;;4956327;29;20421;-61
2021/07/21 10:24:18;;;;;;;10.57;9.53;;;24.60;99.90;;;;;;4956049;28;20429;-61
2021/07/21 10:26:44;;;;;;;11.10;10.00;;;25.10;99.90;;;;;;4956026;29;20402;-61
2021/07/21 10:29:12;;;;;;;11.50;9.90;;;25.20;99.90;;;;;;4954579;28;20421;-62
2021/07/21 10:31:39;;;;;;;11.37;10.20;;;25.30;98.80;;;;;;4955379;29;20473;-61
2021/07/21 10:34:05;;;;;;;13.13;9.70;;;25.40;98.70;;;;;;4955944;28;20436;-61
2021/07/21 10:36:34;;;;;;;10.37;9.37;;;25.40;98.60;;;;;;4956030;29;20790;-62
2021/07/21 10:39:08;;;;;;;10.47;9.37;;;25.40;98.40;;;;;;4955885;29;20413;-61
2021/07/21 10:41:34;;;;;;;10.20;9.20;;;25.50;98.30;;;;;;4954322;29;20433;-62
2021/07/21 10:44:00;;;;;;;14.73;10.50;;;25.70;98.30;;;;;;4955194;28;20449;-61
2021/07/21 10:46:43;;;;;;;10.40;9.40;;;25.90;97.20;;;;;;4954085;28;20922;-62
2021/07/21 10:49:22;;;;;;;10.70;9.67;;;25.50;97.30;;;;;;4955823;28;20469;-62
2021/07/21 11:00:16;;;;;;;9.93;8.93;;;25.90;96.40;;;;;;4955580;29;20409;-62
2021/07/21 11:02:44;;;;;;;10.73;9.60;;;26.40;97.00;;;;;;4954926;29;20779;-64
2021/07/21 11:05:29;;;;;;;12.20;11.00;;;26.60;96.10;;;;;;4955410;28;20496;-62
2021/07/21 11:07:55;;;;;;;12.43;10.03;;;26.40;95.50;;;;;;4955550;29;20769;-62
2021/07/21 11:10:40;;;;;;;11.80;9.83;;;26.40;95.40;;;;;;4955120;28;20424;-63
2021/07/21 11:13:12;;;;;;;10.60;9.50;;;26.60;94.80;;;;;;4955173;29;20507;-62
2021/07/21 11:15:47;;;;;;;9.90;9.00;;;26.80;95.10;;;;;;4955565;28;20481;-62
2021/07/21 11:18:22;;;;;;;12.50;9.73;;;26.80;94.20;;;;;;4954710;29;20409;-61
2021/07/21 11:21:03;;;;;;;11.13;9.30;;;27.20;94.10;;;;;;4955284;29;20492;-63
2021/07/21 11:23:52;;;;;;;10.57;9.47;;;27.50;94.50;;;;;;4955310;28;20437;-63
2021/07/21 11:26:36;;;;;;;11.20;9.80;;;27.30;93.30;;;;;;4954566;29;20397;-64
2021/07/21 11:29:20;;;;;;;12.87;10.33;;;26.90;93.20;;;;;;4953689;29;20421;-64
2021/07/21 11:31:54;;;;;;;10.63;9.60;;;27.40;93.30;;;;;;4956150;29;20464;-64
2021/07/21 11:34:29;;;;;;;11.20;10.00;;;28.80;92.50;;;;;;4956282;28;20431;-63
2021/07/21 11:36:56;;;;;;;10.60;9.50;;;29.70;90.30;;;;;;4955903;29;20417;-63
2021/07/21 11:39:35;;;;;;;11.97;9.70;;;30.90;85.10;;;;;;4947060;28;20426;-64
2021/07/21 11:42:05;;;;;;;10.40;9.40;;;31.70;80.60;;;;;;4937061;29;20782;-64
2021/07/21 11:44:38;;;;;;;13.33;10.43;;;32.80;77.10;;;;;;4942873;29;20516;-64
2021/07/21 11:47:09;;;;;;;10.37;9.43;;;33.60;74.10;;;;;;4956663;28;20398;-63
2021/07/21 11:49:34;;;;;;;9.40;8.40;;;33.70;70.50;;;;;;4955179;29;20410;-63
2021/07/21 11:52:03;;;;;;;11.07;10.07;;;33.40;70.30;;;;;;4955243;29;20866;-63
2021/07/21 11:54:37;;;;;;;10.40;9.30;;;34.60;66.20;;;;;;4955699;28;20621;-63
2021/07/21 11:57:08;;;;;;;10.30;9.40;;;33.50;68.00;;;;;;4955708;29;20497;-64
2021/07/21 11:59:39;;;;;;;11.40;10.37;;;33.70;66.30;;;;;;4954430;29;20417;-63
2021/07/21 12:02:09;;;;;;;10.33;9.33;;;33.40;68.20;;;;;;4955205;28;20732;-63
2021/07/21 12:04:41;;;;;;;12.23;10.97;;;33.30;65.70;;;;;;4953368;28;20449;-63
2021/07/21 12:07:07;;;;;;;10.33;9.30;;;34.10;65.70;;;;;;4955039;28;20394;-63
2021/07/21 12:09:38;;;;;;;11.10;9.70;;;34.40;63.60;;;;;;4954640;29;20410;-63
2021/07/21 12:12:09;;;;;;;10.93;9.83;;;34.00;63.30;;;;;;4954840;29;20433;-63
2021/07/21 12:14:38;;;;;;;10.50;9.40;;;34.80;63.60;;;;;;4954590;28;20428;-64
2021/07/21 12:17:11;;;;;;;11.03;10.00;;;35.40;61.00;;;;;;4954627;29;20408;-63
2021/07/21 12:19:38;;;;;;;11.13;9.13;;;35.10;60.40;;;;;;4954101;28;20433;-63
2021/07/21 12:22:14;;;;;;;11.20;10.10;;;34.50;61.50;;;;;;4954742;29;20413;-63
2021/07/21 12:24:46;;;;;;;10.10;9.03;;;36.10;58.40;;;;;;4954691;28;20428;-63
2021/07/21 12:27:15;;;;;;;11.23;10.23;;;37.10;57.30;;;;;;4954624;29;20453;-63
2021/07/21 12:29:41;;;;;;;9.40;8.43;;;37.00;55.80;;;;;;4954787;28;20899;-63
2021/07/21 12:32:11;;;;;;;10.30;9.40;;;36.80;57.00;;;;;;4954624;29;20862;-62
2021/07/21 12:34:42;;;;;;;9.10;8.30;;;35.80;58.00;;;;;;4939376;28;20450;-63
2021/07/21 12:37:13;;;;;;;8.90;8.10;;;36.20;59.10;;;;;;4923874;29;20423;-63
2021/07/21 12:39:42;;;;;;;9.37;8.50;;;36.90;57.50;;;;;;4919948;29;20400;-63
2021/07/21 12:42:16;;;;;;;10.07;9.07;;;37.00;55.40;;;;;;4941048;29;20425;-63
2021/07/21 12:44:45;;;;;;;9.70;8.80;;;36.70;55.80;;;;;;4957635;28;20456;-63
2021/07/21 12:47:11;;;;;;;10.30;9.30;;;36.60;56.30;;;;;;4956513;29;20436;-64
2021/07/21 12:49:38;;;;;;;10.03;9.03;;;36.40;56.80;;;;;;4956253;29;20449;-63
2021/07/21 12:52:05;;;;;;;9.40;8.60;;;35.90;56.90;;;;;;4956206;29;20194;-64
2021/07/21 12:54:32;;;;;;;10.50;9.53;;;35.70;58.10;;;;;;4955808;28;20441;-63